RYR6826 LZIB-EPGD
Flight info
| Callsign | RYR6826 |
|---|---|
| Flight time | N/A |
| Altitude | 36000 |
| Route | BERVA P10 MAVOR DCT UPLAV DCT DESEN DCT ARMEX L617 XIDNA DCT ATMIR P733 IRLUN |
| Aircraft | B738/M-SDE2E3FGHIRWXY/LB1 |
Departure
| Time | 2026-04-29 21:04 |
|---|---|
| Airport | M. R. Štefánik Airport (LZIB) |
Arrival
| Time | N/A |
|---|---|
| Airport | Gdańsk Lech Wałęsa Airport (EPGD) |
| Time | Latitude | Longitude | Altitude | Speed | Heading |
|---|---|---|---|---|---|
| 2026-04-29 20:36 | 48.16886 | 17.20048 | 421 ft | 0 kts | 314° |
| 2026-04-29 20:57 | 48.16884 | 17.20051 | 419 ft | 3 kts | 314° |
| 2026-04-29 20:57 | 48.16868 | 17.20082 | 423 ft | 4 kts | 296° |
| 2026-04-29 20:58 | 48.16861 | 17.20118 | 426 ft | 4 kts | 258° |
| 2026-04-29 20:58 | 48.16867 | 17.20140 | 417 ft | 0 kts | 224° |
| 2026-04-29 21:00 | 48.16849 | 17.20145 | 420 ft | 6 kts | 150° |
| 2026-04-29 21:01 | 48.16818 | 17.20203 | 423 ft | 9 kts | 130° |
| 2026-04-29 21:01 | 48.16771 | 17.20267 | 420 ft | 9 kts | 161° |
| 2026-04-29 21:01 | 48.16727 | 17.20332 | 425 ft | 9 kts | 132° |
| 2026-04-29 21:01 | 48.16671 | 17.20324 | 432 ft | 11 kts | 221° |
| 2026-04-29 21:02 | 48.16599 | 17.20235 | 428 ft | 16 kts | 219° |
| 2026-04-29 21:02 | 48.16496 | 17.20106 | 422 ft | 22 kts | 220° |
| 2026-04-29 21:02 | 48.16375 | 17.19952 | 430 ft | 23 kts | 220° |
| 2026-04-29 21:02 | 48.16261 | 17.19805 | 430 ft | 19 kts | 219° |
| 2026-04-29 21:03 | 48.16164 | 17.19844 | 421 ft | 14 kts | 152° |
| 2026-04-29 21:03 | 48.16100 | 17.19939 | 430 ft | 13 kts | 104° |
| 2026-04-29 21:03 | 48.16158 | 17.20057 | 428 ft | 22 kts | 44° |
| 2026-04-29 21:03 | 48.16440 | 17.20462 | 431 ft | 90 kts | 44° |
| 2026-04-29 21:04 | 48.17044 | 17.21319 | 439 ft | 146 kts | 40° |
| 2026-04-29 21:04 | 48.17764 | 17.22452 | 1002 ft | 153 kts | 45° |
| 2026-04-29 21:04 | 48.18518 | 17.23592 | 1779 ft | 146 kts | 43° |
| 2026-04-29 21:04 | 48.19253 | 17.24635 | 2574 ft | 150 kts | 44° |
| 2026-04-29 21:05 | 48.20089 | 17.25815 | 2868 ft | 179 kts | 44° |
| 2026-04-29 21:05 | 48.21057 | 17.27184 | 3069 ft | 203 kts | 44° |
| 2026-04-29 21:05 | 48.22154 | 17.28655 | 3367 ft | 223 kts | 38° |
| 2026-04-29 21:05 | 48.23472 | 17.30030 | 3947 ft | 235 kts | 36° |
| 2026-04-29 21:06 | 48.24843 | 17.31427 | 4705 ft | 242 kts | 36° |
| 2026-04-29 21:06 | 48.26244 | 17.32878 | 5468 ft | 248 kts | 36° |
| 2026-04-29 21:06 | 48.27668 | 17.34368 | 6275 ft | 251 kts | 35° |
| 2026-04-29 21:06 | 48.29109 | 17.35885 | 7068 ft | 255 kts | 34° |
| 2026-04-29 21:07 | 48.30598 | 17.37360 | 7837 ft | 258 kts | 31° |
| 2026-04-29 21:07 | 48.32144 | 17.38752 | 8627 ft | 260 kts | 30° |
| 2026-04-29 21:07 | 48.33710 | 17.40139 | 9438 ft | 262 kts | 30° |
| 2026-04-29 21:07 | 48.35289 | 17.41539 | 10227 ft | 265 kts | 29° |
| 2026-04-29 21:08 | 48.36899 | 17.42971 | 10774 ft | 276 kts | 29° |
| 2026-04-29 21:08 | 48.38625 | 17.44511 | 10947 ft | 300 kts | 29° |
| 2026-04-29 21:08 | 48.40479 | 17.46171 | 11201 ft | 318 kts | 29° |
| 2026-04-29 21:08 | 48.42398 | 17.47897 | 11871 ft | 323 kts | 30° |
| 2026-04-29 21:09 | 48.44358 | 17.49561 | 12594 ft | 326 kts | 22° |
| 2026-04-29 21:09 | 48.46559 | 17.50408 | 13306 ft | 329 kts | 9° |
| 2026-04-29 21:09 | 48.48827 | 17.50935 | 14136 ft | 330 kts | 8° |
| 2026-04-29 21:09 | 48.51111 | 17.51465 | 14832 ft | 334 kts | 9° |
| 2026-04-29 21:10 | 48.53417 | 17.52015 | 15559 ft | 337 kts | 9° |
| 2026-04-29 21:10 | 48.55736 | 17.52585 | 16317 ft | 339 kts | 9° |
| 2026-04-29 21:10 | 48.58073 | 17.53169 | 17059 ft | 342 kts | 10° |
| 2026-04-29 21:10 | 48.60430 | 17.53764 | 17778 ft | 345 kts | 10° |
| 2026-04-29 21:11 | 48.62820 | 17.54251 | 18481 ft | 349 kts | 6° |
| 2026-04-29 21:11 | 48.65253 | 17.54282 | 19221 ft | 351 kts | 2° |
| 2026-04-29 21:11 | 48.67701 | 17.54168 | 19848 ft | 353 kts | 1° |
| 2026-04-29 21:11 | 48.70172 | 17.54053 | 20415 ft | 357 kts | 1° |
| 2026-04-29 21:12 | 48.72673 | 17.53966 | 21001 ft | 361 kts | 1° |
| 2026-04-29 21:12 | 48.75196 | 17.53905 | 21593 ft | 364 kts | 2° |
| 2026-04-29 21:12 | 48.77740 | 17.53862 | 22178 ft | 367 kts | 1° |
| 2026-04-29 21:12 | 48.80271 | 17.53825 | 22741 ft | 370 kts | 1° |
| 2026-04-29 21:13 | 48.82894 | 17.53787 | 23291 ft | 374 kts | 1° |
| 2026-04-29 21:13 | 48.85473 | 17.53740 | 23839 ft | 377 kts | 2° |
| 2026-04-29 21:13 | 48.88090 | 17.53687 | 24427 ft | 376 kts | 3° |
| 2026-04-29 21:13 | 48.90710 | 17.53634 | 24884 ft | 378 kts | 2° |
| 2026-04-29 21:14 | 48.93357 | 17.53581 | 25271 ft | 382 kts | 2° |
| 2026-04-29 21:14 | 48.96027 | 17.53528 | 25674 ft | 386 kts | 2° |
| 2026-04-29 21:14 | 48.98719 | 17.53474 | 26110 ft | 388 kts | 2° |
| 2026-04-29 21:14 | 49.01432 | 17.53420 | 26524 ft | 391 kts | 1° |
| 2026-04-29 21:15 | 49.04158 | 17.53365 | 26923 ft | 394 kts | 1° |
| 2026-04-29 21:15 | 49.06906 | 17.53310 | 27318 ft | 396 kts | 1° |
| 2026-04-29 21:15 | 49.09668 | 17.53255 | 27717 ft | 399 kts | 1° |
| 2026-04-29 21:15 | 49.12457 | 17.53199 | 28081 ft | 402 kts | 1° |
| 2026-04-29 21:16 | 49.15263 | 17.53143 | 28424 ft | 405 kts | 1° |
| 2026-04-29 21:16 | 49.18091 | 17.53086 | 28766 ft | 408 kts | 1° |
| 2026-04-29 21:16 | 49.20942 | 17.53029 | 29115 ft | 411 kts | 1° |
| 2026-04-29 21:16 | 49.23810 | 17.52971 | 29448 ft | 414 kts | 0° |
| 2026-04-29 21:17 | 49.26697 | 17.52913 | 29766 ft | 416 kts | 0° |
| 2026-04-29 21:17 | 49.29603 | 17.52855 | 30086 ft | 419 kts | 0° |
| 2026-04-29 21:17 | 49.32524 | 17.52795 | 30455 ft | 420 kts | 1° |
| 2026-04-29 21:17 | 49.35442 | 17.52750 | 30896 ft | 418 kts | 2° |
| 2026-04-29 21:18 | 49.38342 | 17.52716 | 31306 ft | 416 kts | 1° |
| 2026-04-29 21:18 | 49.41237 | 17.52686 | 31644 ft | 416 kts | 1° |
| 2026-04-29 21:18 | 49.44138 | 17.52657 | 31965 ft | 417 kts | 1° |
| 2026-04-29 21:18 | 49.47035 | 17.52627 | 32325 ft | 416 kts | 1° |
| 2026-04-29 21:19 | 49.49933 | 17.52596 | 32687 ft | 416 kts | 1° |
| 2026-04-29 21:19 | 49.52823 | 17.52564 | 33036 ft | 416 kts | 1° |
| 2026-04-29 21:19 | 49.55708 | 17.52531 | 33497 ft | 412 kts | 1° |
| 2026-04-29 21:19 | 49.58550 | 17.52497 | 34066 ft | 407 kts | 1° |
| 2026-04-29 21:20 | 49.61383 | 17.52464 | 34374 ft | 407 kts | 1° |
| 2026-04-29 21:20 | 49.63263 | 17.52443 | 34501 ft | 409 kts | 1° |
| 2026-04-29 21:20 | 49.67043 | 17.52401 | 34763 ft | 411 kts | 1° |
| 2026-04-29 21:20 | 49.69904 | 17.52368 | 35012 ft | 411 kts | 0° |
| 2026-04-29 21:21 | 49.72769 | 17.52335 | 35244 ft | 412 kts | 0° |
| 2026-04-29 21:21 | 49.75642 | 17.52302 | 35438 ft | 414 kts | 0° |
| 2026-04-29 21:21 | 49.78523 | 17.52269 | 35653 ft | 415 kts | 0° |
| 2026-04-29 21:21 | 49.81409 | 17.52235 | 35878 ft | 415 kts | 0° |
| 2026-04-29 21:22 | 49.84299 | 17.52202 | 36101 ft | 416 kts | 0° |
| 2026-04-29 21:22 | 49.87198 | 17.52168 | 36296 ft | 417 kts | 0° |
| 2026-04-29 21:22 | 49.90103 | 17.52134 | 36504 ft | 418 kts | 0° |
| 2026-04-29 21:22 | 49.93008 | 17.52100 | 36687 ft | 418 kts | 0° |
| 2026-04-29 21:23 | 49.95919 | 17.52066 | 36920 ft | 418 kts | 0° |
| 2026-04-29 21:23 | 49.98827 | 17.52032 | 37115 ft | 419 kts | 0° |
| 2026-04-29 21:23 | 50.01746 | 17.51997 | 37367 ft | 418 kts | 1° |
| 2026-04-29 21:23 | 50.04637 | 17.51963 | 37811 ft | 413 kts | 0° |
| 2026-04-29 21:24 | 50.07512 | 17.51929 | 38011 ft | 414 kts | 0° |
| 2026-04-29 21:24 | 50.10402 | 17.51896 | 38115 ft | 417 kts | 0° |
| 2026-04-29 21:24 | 50.13304 | 17.51862 | 38279 ft | 417 kts | 0° |
| 2026-04-29 21:24 | 50.16209 | 17.51828 | 38458 ft | 418 kts | 0° |
| 2026-04-29 21:25 | 50.19131 | 17.51793 | 38434 ft | 421 kts | 0° |
| 2026-04-29 21:25 | 50.24965 | 17.51724 | 38462 ft | 417 kts | 0° |
| 2026-04-29 21:26 | 50.30628 | 17.50679 | 38463 ft | 405 kts | 351° |
| 2026-04-29 21:26 | 50.36103 | 17.48909 | 38461 ft | 402 kts | 350° |
| 2026-04-29 21:27 | 50.40690 | 17.47437 | 38466 ft | 408 kts | 351° |
| 2026-04-29 21:27 | 50.47211 | 17.45370 | 38462 ft | 413 kts | 351° |
| 2026-04-29 21:28 | 50.52868 | 17.43584 | 38463 ft | 416 kts | 350° |
| 2026-04-29 21:28 | 50.58501 | 17.41802 | 38442 ft | 408 kts | 351° |
| 2026-04-29 21:29 | 50.64010 | 17.40056 | 38458 ft | 403 kts | 351° |
| 2026-04-29 21:29 | 50.69502 | 17.38314 | 38463 ft | 403 kts | 351° |
| 2026-04-29 21:30 | 50.74105 | 17.36850 | 38462 ft | 403 kts | 351° |
| 2026-04-29 21:30 | 50.79609 | 17.35096 | 38467 ft | 404 kts | 350° |
| 2026-04-29 21:31 | 50.85122 | 17.33333 | 38466 ft | 405 kts | 350° |
| 2026-04-29 21:31 | 50.90654 | 17.31561 | 38469 ft | 406 kts | 350° |
| 2026-04-29 21:32 | 50.96162 | 17.29792 | 38468 ft | 407 kts | 350° |
| 2026-04-29 21:32 | 51.01720 | 17.28002 | 38464 ft | 408 kts | 350° |
| 2026-04-29 21:33 | 51.07290 | 17.26204 | 38456 ft | 408 kts | 350° |
| 2026-04-29 21:33 | 51.12866 | 17.24400 | 38460 ft | 409 kts | 350° |
| 2026-04-29 21:34 | 51.18450 | 17.22588 | 38462 ft | 410 kts | 350° |
| 2026-04-29 21:34 | 51.24044 | 17.20769 | 38469 ft | 410 kts | 350° |
| 2026-04-29 21:35 | 51.29641 | 17.18945 | 38471 ft | 411 kts | 350° |
| 2026-04-29 21:35 | 51.35246 | 17.17113 | 38478 ft | 411 kts | 350° |
| 2026-04-29 21:36 | 51.40852 | 17.15276 | 38476 ft | 411 kts | 350° |
| 2026-04-29 21:36 | 51.46454 | 17.13436 | 38479 ft | 411 kts | 350° |
| 2026-04-29 21:37 | 51.51985 | 17.11105 | 38484 ft | 413 kts | 342° |
| 2026-04-29 21:37 | 51.57327 | 17.07698 | 38453 ft | 413 kts | 341° |
| 2026-04-29 21:38 | 51.62668 | 17.04337 | 38474 ft | 412 kts | 342° |
| 2026-04-29 21:38 | 51.68077 | 17.01417 | 38474 ft | 408 kts | 354° |
| 2026-04-29 21:39 | 51.73697 | 17.01303 | 38485 ft | 404 kts | 11° |
| 2026-04-29 21:39 | 51.79152 | 17.03465 | 38486 ft | 404 kts | 15° |
| 2026-04-29 21:40 | 51.84589 | 17.05828 | 38490 ft | 405 kts | 15° |
| 2026-04-29 21:40 | 51.90052 | 17.08171 | 38489 ft | 407 kts | 15° |
| 2026-04-29 21:41 | 51.95495 | 17.10478 | 38487 ft | 408 kts | 15° |
| 2026-04-29 21:41 | 52.00987 | 17.12799 | 38497 ft | 408 kts | 15° |
| 2026-04-29 21:42 | 52.06489 | 17.15126 | 38493 ft | 408 kts | 15° |
| 2026-04-29 21:42 | 52.11984 | 17.17458 | 38492 ft | 408 kts | 15° |
| 2026-04-29 21:43 | 52.17473 | 17.19793 | 38489 ft | 407 kts | 15° |
| 2026-04-29 21:43 | 52.22946 | 17.22127 | 38489 ft | 406 kts | 15° |
| 2026-04-29 21:44 | 52.28405 | 17.24462 | 38491 ft | 405 kts | 15° |
| 2026-04-29 21:44 | 52.33844 | 17.26793 | 38492 ft | 404 kts | 15° |
| 2026-04-29 21:45 | 52.39276 | 17.29128 | 38342 ft | 405 kts | 16° |
| 2026-04-29 21:45 | 52.42001 | 17.30302 | 38063 ft | 402 kts | 16° |
| 2026-04-29 21:45 | 52.44683 | 17.31457 | 37670 ft | 396 kts | 16° |
| 2026-04-29 21:45 | 52.47328 | 17.32598 | 37299 ft | 391 kts | 16° |
| 2026-04-29 21:46 | 52.49940 | 17.33727 | 36944 ft | 386 kts | 17° |
| 2026-04-29 21:46 | 52.52522 | 17.34844 | 36559 ft | 381 kts | 17° |
| 2026-04-29 21:46 | 52.55069 | 17.35947 | 36185 ft | 377 kts | 17° |
| 2026-04-29 21:46 | 52.57591 | 17.37041 | 35808 ft | 373 kts | 17° |
| 2026-04-29 21:47 | 52.60082 | 17.38123 | 35440 ft | 368 kts | 18° |
| 2026-04-29 21:47 | 52.62547 | 17.39195 | 35075 ft | 364 kts | 18° |
| 2026-04-29 21:47 | 52.64981 | 17.40256 | 34713 ft | 360 kts | 18° |
| 2026-04-29 21:47 | 52.67393 | 17.41307 | 34325 ft | 356 kts | 18° |
| 2026-04-29 21:48 | 52.69771 | 17.42345 | 33943 ft | 351 kts | 18° |
| 2026-04-29 21:48 | 52.72113 | 17.43368 | 33573 ft | 346 kts | 18° |
| 2026-04-29 21:48 | 52.74420 | 17.44376 | 33220 ft | 341 kts | 18° |
| 2026-04-29 21:48 | 52.76692 | 17.45396 | 32858 ft | 335 kts | 21° |
| 2026-04-29 21:49 | 52.78809 | 17.46781 | 32519 ft | 329 kts | 27° |
| 2026-04-29 21:49 | 52.80796 | 17.48545 | 32287 ft | 321 kts | 33° |
| 2026-04-29 21:49 | 52.82637 | 17.50591 | 31946 ft | 317 kts | 34° |
| 2026-04-29 21:49 | 52.84440 | 17.52665 | 31587 ft | 314 kts | 35° |
| 2026-04-29 21:50 | 52.86221 | 17.54730 | 31240 ft | 311 kts | 35° |
| 2026-04-29 21:50 | 52.87988 | 17.56780 | 30896 ft | 309 kts | 35° |
| 2026-04-29 21:50 | 52.89741 | 17.58810 | 30546 ft | 306 kts | 35° |
| 2026-04-29 21:50 | 52.91481 | 17.60822 | 30141 ft | 304 kts | 35° |
| 2026-04-29 21:51 | 52.93205 | 17.62814 | 29768 ft | 300 kts | 35° |
| 2026-04-29 21:51 | 52.94905 | 17.64778 | 29413 ft | 296 kts | 34° |
| 2026-04-29 21:51 | 52.98252 | 17.68645 | 28692 ft | 290 kts | 34° |
| 2026-04-29 21:52 | 52.99900 | 17.70552 | 28329 ft | 288 kts | 34° |
| 2026-04-29 21:52 | 53.01533 | 17.72442 | 27983 ft | 285 kts | 34° |
| 2026-04-29 21:52 | 53.03151 | 17.74317 | 27637 ft | 283 kts | 34° |
| 2026-04-29 21:52 | 53.04758 | 17.76181 | 27297 ft | 280 kts | 34° |
| 2026-04-29 21:53 | 53.06352 | 17.78030 | 26950 ft | 278 kts | 34° |
| 2026-04-29 21:53 | 53.07932 | 17.79866 | 26621 ft | 277 kts | 34° |
| 2026-04-29 21:53 | 53.09505 | 17.81695 | 26275 ft | 275 kts | 35° |
| 2026-04-29 21:53 | 53.11069 | 17.83515 | 25946 ft | 274 kts | 35° |
| 2026-04-29 21:54 | 53.13702 | 17.86582 | 25408 ft | 285 kts | 35° |
| 2026-04-29 21:54 | 53.14253 | 17.87224 | 25291 ft | 288 kts | 35° |
| 2026-04-29 21:56 | 53.25411 | 18.00282 | 22806 ft | 281 kts | 34° |
| 2026-04-29 21:56 | 53.27002 | 18.02150 | 22468 ft | 278 kts | 34° |
| 2026-04-29 21:56 | 53.27515 | 18.02753 | 22362 ft | 278 kts | 34° |